Jonni Ritscher — A8JT7 — position and weather

sailwx.info

Track history (hours):
 
Tides and Currents Weather Stations Pressure Air Temp Water Temp Dewpoint Dewpoint Depression Visibility Wind Speed Wind Dir Waves Ship Positions

Jonni Ritscher

Last reported at 2015-Jan-28 17:31 UTC. Time now 2015-Jan-28 18:12 UTC.
Position N 51°20' E 003°12'.

Length 178 m; draft 10.6 m.

Type: Cargo ship. MMSI: 636091136.

Date/timePositionNaut miles runAvg speedWind from/ knotsBaromVisibWave heightAir tempDewpointWater temp
2015-Jan-28 17:31N 51°20' E 003°12'0 0.0
2015-Jan-28 16:31N 51°20' E 003°12'0 0.0
2015-Jan-28 15:33N 51°20' E 003°12'0 0.0
2015-Jan-28 14:33N 51°20' E 003°12'0 0.0
2015-Jan-28 13:33N 51°20' E 003°12'0 0.0
2015-Jan-28 12:29N 51°20' E 003°12'0 0.0
2015-Jan-28 11:31N 51°20' E 003°12'0 0.0
2015-Jan-28 10:31N 51°20' E 003°12'0 0.0
2015-Jan-28 09:31N 51°20' E 003°12'0 0.1
2015-Jan-28 08:28N 51°20' E 003°12'0 0.0
2015-Jan-28 07:34N 51°20' E 003°12'0 0.0
2015-Jan-28 06:33N 51°20' E 003°12'0 0.0
2015-Jan-28 05:33N 51°20' E 003°12'0 0.0
2015-Jan-28 04:29N 51°20' E 003°12'0 0.0
2015-Jan-28 03:32N 51°20' E 003°12'0 0.0
2015-Jan-28 02:28N 51°20' E 003°12'0 0.0
2015-Jan-28 01:31N 51°20' E 003°12'0 0.0
2015-Jan-28 00:15N 51°20' E 003°12'0 0.0
2015-Jan-27 23:33N 51°20' E 003°12'0 0.0
2015-Jan-27 22:33N 51°20' E 003°12'0 0.0
2015-Jan-27 21:32N 51°20' E 003°12'0 0.0
2015-Jan-27 20:32N 51°20' E 003°12'0 0.0
2015-Jan-27 19:31N 51°20' E 003°12'0 0.0
2015-Jan-27 18:31N 51°20' E 003°12'0 0.0
2015-Jan-27 17:30N 51°20' E 003°12'1 0.8
2015-Jan-27 16:34N 51°21' E 003°12'1312.7
2015-Jan-27 15:33N 51°25' E 002°53'8 8.2
2015-Jan-27 14:33N 51°28' E 002°41'115 8.6
2015-Jan-27 01:06N 53°07' E 004°18'5 8.7
2015-Jan-27 00:30N 53°10' E 004°24'9 8.9
2015-Jan-26 23:30N 53°19' E 004°29'8 8.3
2015-Jan-26 22:33N 53°26' E 004°33'8 8.1
2015-Jan-26 21:33N 53°34' E 004°38'9 8.3
2015-Jan-26 20:26N 53°43' E 004°42'8 8.9
2015-Jan-26 19:32N 53°50' E 004°47'9 9.2
2015-Jan-26 18:31N 53°59' E 004°50'9 9.1
2015-Jan-26 17:33N 54°07' E 004°56'9 9.1
2015-Jan-26 16:33N 54°14' E 005°06'9 8.8
2015-Jan-26 15:29N 54°22' E 005°16'60 8.5
2015-Jan-26 08:28N 55°12' E 006°14'1514.8
2015-Jan-26 07:27N 55°25' E 006°27'1516.5
2015-Jan-26 06:33N 55°38' E 006°40'6014.9
2015-Jan-26 02:33N 56°30' E 007°33'1515.0
2015-Jan-26 01:33N 56°42' E 007°46'10113.8
2015-Jan-25 18:16N 57°50' E 010°04'1013.5
2015-Jan-25 17:33N 57°50' E 010°23'1312.8
2015-Jan-25 16:34N 57°48' E 010°46'1414.2
2015-Jan-25 15:34N 57°38' E 011°06'1515.2
2015-Jan-25 14:33N 57°28' E 011°26'1514.8
2015-Jan-25 13:33N 57°14' E 011°35'1514.7
2015-Jan-25 12:33N 57°00' E 011°44'1514.5
2015-Jan-25 11:33N 56°46' E 011°53'1413.7
2015-Jan-25 10:33N 56°34' E 011°42'11612.9
2015-Jan-25 01:33N 54°42' E 010°54'1414.3
2015-Jan-25 00:34N 54°35' E 011°15'1615.7
2015-Jan-24 23:34N 54°28' E 011°40'1514.8
2015-Jan-24 22:34N 54°26' E 012°05'1414.2
2015-Jan-24 21:33N 54°37' E 012°20'1515.2
2015-Jan-24 20:34N 54°46' E 012°42'1514.8
2015-Jan-24 19:33N 54°52' E 013°06'1515.2
2015-Jan-24 18:33N 54°57' E 013°30'1715.3
2015-Jan-24 17:26N 55°03' E 013°58'1214.3
2015-Jan-24 16:34N 55°12' E 014°14'1514.8
2015-Jan-24 15:33N 55°23' E 014°30'1514.8
2015-Jan-24 14:33N 55°32' E 014°52'1614.8
2015-Jan-24 13:27N 55°40' E 015°17'35514.1
2015-Jan-23 12:14N 59°39' E 023°27'1014.0
2015-Jan-23 11:33N 59°42' E 023°46'1414.4
2015-Jan-23 10:33N 59°46' E 024°13'1514.7
2015-Jan-23 09:33N 59°49' E 024°41'4715.4
2015-Jan-23 06:32N 59°59' E 026°12'2014.3
2015-Jan-23 05:10N 60°00' E 026°51'10012.9
2015-Jan-22 21:22N 59°53' E 030°11'1 1.7
2015-Jan-22 20:33N 59°54' E 030°14'0 0.0
2015-Jan-22 19:32N 59°54' E 030°14'0 0.0
2015-Jan-22 18:29N 59°54' E 030°14'0 0.0
2015-Jan-22 17:32N 59°54' E 030°14'0 0.0
2015-Jan-22 16:22N 59°54' E 030°14'0 0.0
2015-Jan-22 15:31N 59°54' E 030°14'0 0.0
2015-Jan-22 14:33N 59°54' E 030°14'0 0.1
2015-Jan-22 13:27N 59°54' E 030°14'0 0.1
2015-Jan-22 12:32N 59°54' E 030°14'0 0.0
2015-Jan-22 11:32N 59°54' E 030°14'0 0.0
2015-Jan-22 10:32N 59°54' E 030°14'0 0.1
2015-Jan-22 09:25N 59°54' E 030°14'0 0.1
2015-Jan-22 08:31N 59°54' E 030°14'0 0.0
2015-Jan-22 07:27N 59°54' E 030°14'0 0.0
2015-Jan-22 06:30N 59°54' E 030°14'0 0.0
2015-Jan-22 05:26N 59°54' E 030°14'0 0.1
2015-Jan-22 04:29N 59°54' E 030°14'0 0.1
2015-Jan-22 03:32N 59°54' E 030°14'0 0.0
2015-Jan-22 02:31N 59°54' E 030°14'0 0.0
2015-Jan-22 01:31N 59°54' E 030°14'0 0.1
2015-Jan-22 00:30N 59°54' E 030°14'0 0.1
2015-Jan-21 23:33N 59°54' E 030°14'0 0.0
2015-Jan-21 22:48N 59°54' E 030°14'0 0.0
2015-Jan-21 22:41N 59°54' E 030°14'0 0.0
2015-Jan-21 22:32N 59°54' E 030°14'0 0.0
2015-Jan-21 21:32N 59°54' E 030°14'0 0.1
2015-Jan-21 20:29N 59°54' E 030°14'2 1.7
2015-Jan-21 19:33N 59°53' E 030°11'1 0.7
2015-Jan-21 18:27N 59°53' E 030°12'0 0.1
2015-Jan-21 17:08N 59°53' E 030°12'0 0.0
2015-Jan-21 16:32N 59°53' E 030°12'0 0.0
2015-Jan-21 15:19N 59°53' E 030°12'0 0.1
2015-Jan-21 14:31N 59°53' E 030°12'0 0.0
2015-Jan-21 13:30N 59°53' E 030°12'0 0.1
2015-Jan-21 12:30N 59°53' E 030°12'0 0.0
2015-Jan-21 10:14N 59°53' E 030°12'0 0.0
2015-Jan-21 09:29N 59°53' E 030°12'0 0.0
2015-Jan-21 08:28N 59°53' E 030°12'0 0.0
2015-Jan-21 07:28N 59°53' E 030°12'0 0.0
2015-Jan-21 06:33N 59°53' E 030°12'0 0.0
2015-Jan-21 05:33N 59°53' E 030°12'0 0.0
2015-Jan-21 04:33N 59°53' E 030°12'0 0.0
2015-Jan-21 03:32N 59°53' E 030°12'9 7.0
2015-Jan-21 02:18N 59°56' E 029°56'72 3.0
2015-Jan-20 02:19N 60°07' E 027°33'1114.7
2015-Jan-20 01:33N 60°01' E 027°13'1413.9
2015-Jan-20 00:34N 59°59' E 026°46'1514.5
2015-Jan-19 23:33N 59°57' E 026°18'4714.9
2015-Jan-19 20:23N 59°46' E 024°46'1315.6
2015-Jan-19 19:33N 59°43' E 024°21'1615.7
2015-Jan-19 18:33N 59°38' E 023°52'1615.5
2015-Jan-19 17:31N 59°33' E 023°22'34116.2
2015-Jan-18 20:32N 55°41' E 015°36'1717.6
2015-Jan-18 19:33N 55°33' E 015°09'1717.4
2015-Jan-18 18:33N 55°24' E 014°42'1717.4
2015-Jan-18 17:33N 55°11' E 014°22'  
Track history (hours):
 
Tides and Currents Weather Stations Pressure Air Temp Water Temp Dewpoint Dewpoint Depression Visibility Wind Speed Wind Dir Waves Ship Positions

Jonni Ritscher

Last reported at 2015-Jan-28 17:31 UTC. Time now 2015-Jan-28 18:12 UTC.
Position N 51°20' E 003°12'.

Length 178 m; draft 10.6 m.

Type: Cargo ship. MMSI: 636091136.

Date/timePositionNaut miles runAvg speedWind from/ knotsBaromVisibWave heightAir tempDewpointWater temp
2015-Jan-28 17:31N 51°20' E 003°12'0 0.0
2015-Jan-28 16:31N 51°20' E 003°12'0 0.0
2015-Jan-28 15:33N 51°20' E 003°12'0 0.0
2015-Jan-28 14:33N 51°20' E 003°12'0 0.0
2015-Jan-28 13:33N 51°20' E 003°12'0 0.0
2015-Jan-28 12:29N 51°20' E 003°12'0 0.0
2015-Jan-28 11:31N 51°20' E 003°12'0 0.0
2015-Jan-28 10:31N 51°20' E 003°12'0 0.0
2015-Jan-28 09:31N 51°20' E 003°12'0 0.1
2015-Jan-28 08:28N 51°20' E 003°12'0 0.0
2015-Jan-28 07:34N 51°20' E 003°12'0 0.0
2015-Jan-28 06:33N 51°20' E 003°12'0 0.0
2015-Jan-28 05:33N 51°20' E 003°12'0 0.0
2015-Jan-28 04:29N 51°20' E 003°12'0 0.0
2015-Jan-28 03:32N 51°20' E 003°12'0 0.0
2015-Jan-28 02:28N 51°20' E 003°12'0 0.0
2015-Jan-28 01:31N 51°20' E 003°12'0 0.0
2015-Jan-28 00:15N 51°20' E 003°12'0 0.0
2015-Jan-27 23:33N 51°20' E 003°12'0 0.0
2015-Jan-27 22:33N 51°20' E 003°12'0 0.0
2015-Jan-27 21:32N 51°20' E 003°12'0 0.0
2015-Jan-27 20:32N 51°20' E 003°12'0 0.0
2015-Jan-27 19:31N 51°20' E 003°12'0 0.0
2015-Jan-27 18:31N 51°20' E 003°12'0 0.0
2015-Jan-27 17:30N 51°20' E 003°12'1 0.8
2015-Jan-27 16:34N 51°21' E 003°12'1312.7
2015-Jan-27 15:33N 51°25' E 002°53'8 8.2
2015-Jan-27 14:33N 51°28' E 002°41'115 8.6
2015-Jan-27 01:06N 53°07' E 004°18'5 8.7
2015-Jan-27 00:30N 53°10' E 004°24'9 8.9
2015-Jan-26 23:30N 53°19' E 004°29'8 8.3
2015-Jan-26 22:33N 53°26' E 004°33'8 8.1
2015-Jan-26 21:33N 53°34' E 004°38'9 8.3
2015-Jan-26 20:26N 53°43' E 004°42'8 8.9
2015-Jan-26 19:32N 53°50' E 004°47'9 9.2
2015-Jan-26 18:31N 53°59' E 004°50'9 9.1
2015-Jan-26 17:33N 54°07' E 004°56'9 9.1
2015-Jan-26 16:33N 54°14' E 005°06'9 8.8
2015-Jan-26 15:29N 54°22' E 005°16'60 8.5
2015-Jan-26 08:28N 55°12' E 006°14'1514.8
2015-Jan-26 07:27N 55°25' E 006°27'1516.5
2015-Jan-26 06:33N 55°38' E 006°40'6014.9
2015-Jan-26 02:33N 56°30' E 007°33'1515.0
2015-Jan-26 01:33N 56°42' E 007°46'10113.8
2015-Jan-25 18:16N 57°50' E 010°04'1013.5
2015-Jan-25 17:33N 57°50' E 010°23'1312.8
2015-Jan-25 16:34N 57°48' E 010°46'1414.2
2015-Jan-25 15:34N 57°38' E 011°06'1515.2
2015-Jan-25 14:33N 57°28' E 011°26'1514.8
2015-Jan-25 13:33N 57°14' E 011°35'1514.7
2015-Jan-25 12:33N 57°00' E 011°44'1514.5
2015-Jan-25 11:33N 56°46' E 011°53'1413.7
2015-Jan-25 10:33N 56°34' E 011°42'11612.9
2015-Jan-25 01:33N 54°42' E 010°54'1414.3
2015-Jan-25 00:34N 54°35' E 011°15'1615.7
2015-Jan-24 23:34N 54°28' E 011°40'1514.8
2015-Jan-24 22:34N 54°26' E 012°05'1414.2
2015-Jan-24 21:33N 54°37' E 012°20'1515.2
2015-Jan-24 20:34N 54°46' E 012°42'1514.8
2015-Jan-24 19:33N 54°52' E 013°06'1515.2
2015-Jan-24 18:33N 54°57' E 013°30'1715.3
2015-Jan-24 17:26N 55°03' E 013°58'1214.3
2015-Jan-24 16:34N 55°12' E 014°14'1514.8
2015-Jan-24 15:33N 55°23' E 014°30'1514.8
2015-Jan-24 14:33N 55°32' E 014°52'1614.8
2015-Jan-24 13:27N 55°40' E 015°17'35514.1
2015-Jan-23 12:14N 59°39' E 023°27'1014.0
2015-Jan-23 11:33N 59°42' E 023°46'1414.4
2015-Jan-23 10:33N 59°46' E 024°13'1514.7
2015-Jan-23 09:33N 59°49' E 024°41'4715.4
2015-Jan-23 06:32N 59°59' E 026°12'2014.3
2015-Jan-23 05:10N 60°00' E 026°51'10012.9
2015-Jan-22 21:22N 59°53' E 030°11'1 1.7
2015-Jan-22 20:33N 59°54' E 030°14'0 0.0
2015-Jan-22 19:32N 59°54' E 030°14'0 0.0
2015-Jan-22 18:29N 59°54' E 030°14'0 0.0
2015-Jan-22 17:32N 59°54' E 030°14'0 0.0
2015-Jan-22 16:22N 59°54' E 030°14'0 0.0
2015-Jan-22 15:31N 59°54' E 030°14'0 0.0
2015-Jan-22 14:33N 59°54' E 030°14'0 0.1
2015-Jan-22 13:27N 59°54' E 030°14'0 0.1
2015-Jan-22 12:32N 59°54' E 030°14'0 0.0
2015-Jan-22 11:32N 59°54' E 030°14'0 0.0
2015-Jan-22 10:32N 59°54' E 030°14'0 0.1
2015-Jan-22 09:25N 59°54' E 030°14'0 0.1
2015-Jan-22 08:31N 59°54' E 030°14'0 0.0
2015-Jan-22 07:27N 59°54' E 030°14'0 0.0
2015-Jan-22 06:30N 59°54' E 030°14'0 0.0
2015-Jan-22 05:26N 59°54' E 030°14'0 0.1
2015-Jan-22 04:29N 59°54' E 030°14'0 0.1
2015-Jan-22 03:32N 59°54' E 030°14'0 0.0
2015-Jan-22 02:31N 59°54' E 030°14'0 0.0
2015-Jan-22 01:31N 59°54' E 030°14'0 0.1
2015-Jan-22 00:30N 59°54' E 030°14'0 0.1
2015-Jan-21 23:33N 59°54' E 030°14'0 0.0
2015-Jan-21 22:48N 59°54' E 030°14'0 0.0
2015-Jan-21 22:41N 59°54' E 030°14'0 0.0
2015-Jan-21 22:32N 59°54' E 030°14'0 0.0
2015-Jan-21 21:32N 59°54' E 030°14'0 0.1
2015-Jan-21 20:29N 59°54' E 030°14'2 1.7
2015-Jan-21 19:33N 59°53' E 030°11'1 0.7
2015-Jan-21 18:27N 59°53' E 030°12'0 0.1
2015-Jan-21 17:08N 59°53' E 030°12'0 0.0
2015-Jan-21 16:32N 59°53' E 030°12'0 0.0
2015-Jan-21 15:19N 59°53' E 030°12'0 0.1
2015-Jan-21 14:31N 59°53' E 030°12'0 0.0
2015-Jan-21 13:30N 59°53' E 030°12'0 0.1
2015-Jan-21 12:30N 59°53' E 030°12'0 0.0
2015-Jan-21 10:14N 59°53' E 030°12'0 0.0
2015-Jan-21 09:29N 59°53' E 030°12'0 0.0
2015-Jan-21 08:28N 59°53' E 030°12'0 0.0
2015-Jan-21 07:28N 59°53' E 030°12'0 0.0
2015-Jan-21 06:33N 59°53' E 030°12'0 0.0
2015-Jan-21 05:33N 59°53' E 030°12'0 0.0
2015-Jan-21 04:33N 59°53' E 030°12'0 0.0
2015-Jan-21 03:32N 59°53' E 030°12'9 7.0
2015-Jan-21 02:18N 59°56' E 029°56'72 3.0
2015-Jan-20 02:19N 60°07' E 027°33'1114.7
2015-Jan-20 01:33N 60°01' E 027°13'1413.9
2015-Jan-20 00:34N 59°59' E 026°46'1514.5
2015-Jan-19 23:33N 59°57' E 026°18'4714.9
2015-Jan-19 20:23N 59°46' E 024°46'1315.6
2015-Jan-19 19:33N 59°43' E 024°21'1615.7
2015-Jan-19 18:33N 59°38' E 023°52'1615.5
2015-Jan-19 17:31N 59°33' E 023°22'34116.2
2015-Jan-18 20:32N 55°41' E 015°36'1717.6
2015-Jan-18 19:33N 55°33' E 015°09'1717.4
2015-Jan-18 18:33N 55°24' E 014°42'1717.4
2015-Jan-18 17:33N 55°11' E 014°22'  

Dump ship's entire track history